Time;durP1;ratioP1;P1;durP2;ratioP2;P2;SDS_P1;SDS_P2;PMS_P1;PMS_P2;Temp;Humidity;BMP_temperature;BMP_pressure;BME280_temperature;BME280_humidity;BME280_pressure;Samples;Min_cycle;Max_cycle;Signal;HPM_P1;HPM_P2
2022/03/29 00:21:02;;;;;;;4.68;3.33;;;;;;;;;;4779499;29;20083;-60
2022/03/29 00:23:28;;;;;;;4.32;3.40;;;;;;;;;;4142903;34;20116;-59
2022/03/29 00:25:55;;;;;;;3.95;3.00;;;;;;;;;;4137177;34;20152;-60
2022/03/29 00:28:21;;;;;;;4.37;2.90;;;;;;;;;;4137412;34;20100;-60
2022/03/29 00:30:46;;;;;;;3.80;3.00;;;;;;;;;;4136652;34;20123;-60
2022/03/29 00:33:13;;;;;;;4.80;2.72;;;;;;;;;;4134631;34;20474;-62
2022/03/29 00:35:39;;;;;;;3.78;2.55;;;;;;;;;;4137195;34;20210;-61
2022/03/29 00:38:05;;;;;;;2.58;2.12;;;;;;;;;;4137363;34;20970;-60
2022/03/29 00:40:31;;;;;;;2.55;1.85;;;;;;;;;;4137166;34;20128;-59
2022/03/29 00:42:57;;;;;;;2.33;2.00;;;;;;;;;;4136993;34;20100;-59
2022/03/29 00:45:23;;;;;;;2.33;2.10;;;;;;;;;;4137168;34;20123;-59
2022/03/29 00:47:50;;;;;;;2.80;2.20;;;;;;;;;;4137072;34;20104;-60
2022/03/29 00:50:16;;;;;;;3.33;1.77;;;;;;;;;;4137092;34;20228;-59
2022/03/29 00:52:42;;;;;;;3.45;1.98;;;;;;;;;;4136898;34;20127;-61
2022/03/29 00:55:12;;;;;;;7.05;2.53;;;;;;;;;;4135755;34;20127;-61
2022/03/29 00:57:38;;;;;;;3.80;1.90;;;;;;;;;;4131722;34;20119;-61
2022/03/29 01:00:06;;;;;;;3.53;2.00;;;;;;;;;;4136957;34;20465;-62
2022/03/29 01:02:32;;;;;;;3.50;2.10;;;;;;;;;;4137035;34;20123;-62
2022/03/29 01:04:58;;;;;;;1.92;1.60;;;;;;;;;;4137283;34;20134;-62
2022/03/29 01:07:27;;;;;;;2.20;1.70;;;;;;;;;;4136751;34;20226;-62
2022/03/29 01:09:54;;;;;;;1.80;1.67;;;;;;;;;;4136970;34;20133;-62
2022/03/29 01:12:22;;;;;;;2.80;1.70;;;;;;;;;;4137136;34;20147;-62
2022/03/29 01:14:48;;;;;;;2.05;1.85;;;;;;;;;;4136885;34;20134;-62
2022/03/29 01:19:59;;;;;;;4.20;2.17;;;;;;;;;;4135754;34;20131;-62
2022/03/29 01:22:25;;;;;;;2.92;2.12;;;;;;;;;;4124446;34;20191;-61
2022/03/29 01:24:51;;;;;;;2.92;1.90;;;;;;;;;;4135338;34;20127;-61
2022/03/29 01:27:19;;;;;;;2.85;1.90;;;;;;;;;;4123556;34;20444;-61
2022/03/29 01:29:45;;;;;;;2.47;1.98;;;;;;;;;;4124363;34;20142;-61
2022/03/29 01:32:11;;;;;;;2.08;1.87;;;;;;;;;;4124214;34;20116;-61
2022/03/29 01:34:40;;;;;;;1.98;1.77;;;;;;;;;;4136697;34;20107;-61
2022/03/29 01:37:07;;;;;;;3.60;2.17;;;;;;;;;;4136707;34;20536;-65
2022/03/29 01:39:34;;;;;;;2.28;2.08;;;;;;;;;;4136682;34;20088;-62
2022/03/29 01:42:00;;;;;;;1.80;1.70;;;;;;;;;;4136742;34;20538;-61
2022/03/29 01:44:26;;;;;;;2.22;2.03;;;;;;;;;;4136579;34;20119;-61
2022/03/29 01:46:53;;;;;;;2.85;2.22;;;;;;;;;;4124244;34;20131;-63
2022/03/29 01:49:19;;;;;;;3.47;1.95;;;;;;;;;;4136738;34;20107;-62
2022/03/29 01:51:45;;;;;;;2.20;2.00;;;;;;;;;;4136644;34;20115;-62
2022/03/29 01:54:12;;;;;;;3.95;2.00;;;;;;;;;;4136885;34;20107;-61
2022/03/29 01:56:38;;;;;;;2.25;2.05;;;;;;;;;;4136506;34;20486;-61
2022/03/29 01:59:06;;;;;;;2.03;1.50;;;;;;;;;;4136326;34;20650;-61
2022/03/29 02:01:46;;;;;;;3.22;2.08;;;;;;;;;;4124214;34;20547;-61
2022/03/29 02:04:12;;;;;;;4.22;2.10;;;;;;;;;;4124179;34;20448;-62
2022/03/29 02:06:39;;;;;;;2.42;2.00;;;;;;;;;;4135054;34;20103;-62
2022/03/29 02:09:08;;;;;;;4.40;1.90;;;;;;;;;;4136372;34;20127;-61
2022/03/29 02:11:38;;;;;;;3.62;2.10;;;;;;;;;;4136437;34;20204;-61
2022/03/29 02:14:04;;;;;;;4.20;2.28;;;;;;;;;;4136363;34;20119;-61
2022/03/29 02:16:30;;;;;;;3.05;1.73;;;;;;;;;;4136456;34;20119;-61
2022/03/29 02:18:56;;;;;;;2.90;2.17;;;;;;;;;;4136338;34;20129;-61
2022/03/29 02:21:22;;;;;;;3.00;1.92;;;;;;;;;;4136202;34;20103;-61
2022/03/29 02:23:48;;;;;;;2.40;2.20;;;;;;;;;;4136173;34;20483;-61
2022/03/29 02:26:14;;;;;;;2.83;2.03;;;;;;;;;;4136576;34;20144;-62
2022/03/29 02:28:40;;;;;;;2.72;1.83;;;;;;;;;;4136239;34;20111;-62
2022/03/29 02:31:06;;;;;;;2.60;2.00;;;;;;;;;;4136129;34;20104;-62
2022/03/29 02:33:32;;;;;;;2.22;1.90;;;;;;;;;;4136179;34;20469;-62
2022/03/29 02:35:58;;;;;;;2.60;1.98;;;;;;;;;;4136171;34;20130;-62
2022/03/29 02:38:24;;;;;;;4.00;1.80;;;;;;;;;;4135884;34;20473;-62
2022/03/29 02:40:50;;;;;;;2.53;2.00;;;;;;;;;;4136017;34;20130;-61
2022/03/29 02:43:16;;;;;;;2.10;1.90;;;;;;;;;;4136129;34;20123;-61
2022/03/29 02:45:42;;;;;;;3.65;1.90;;;;;;;;;;4136064;34;20115;-62
2022/03/29 02:48:08;;;;;;;1.95;1.75;;;;;;;;;;4135978;34;20319;-62
2022/03/29 02:50:34;;;;;;;2.53;2.20;;;;;;;;;;4136013;34;20150;-61
2022/03/29 02:53:01;;;;;;;2.50;2.12;;;;;;;;;;4123323;34;20131;-61
2022/03/29 02:55:29;;;;;;;3.22;2.10;;;;;;;;;;4135929;34;20118;-61
2022/03/29 02:57:56;;;;;;;4.05;1.90;;;;;;;;;;4135807;34;20621;-62
2022/03/29 03:00:22;;;;;;;3.15;2.47;;;;;;;;;;4123334;34;20099;-62
2022/03/29 03:02:50;;;;;;;2.87;1.95;;;;;;;;;;4136100;34;20119;-61
2022/03/29 03:05:17;;;;;;;3.97;2.20;;;;;;;;;;4135763;34;20108;-61
2022/03/29 03:07:44;;;;;;;2.53;2.10;;;;;;;;;;4135794;34;20100;-61
2022/03/29 03:10:11;;;;;;;2.65;2.17;;;;;;;;;;4135792;34;20550;-61
2022/03/29 03:12:39;;;;;;;2.90;2.55;;;;;;;;;;4123337;34;20218;-61
2022/03/29 03:15:06;;;;;;;3.95;2.35;;;;;;;;;;4135774;34;20138;-61
2022/03/29 03:17:32;;;;;;;3.17;2.45;;;;;;;;;;4135667;34;20140;-62
2022/03/29 03:19:58;;;;;;;3.60;2.62;;;;;;;;;;4135715;34;20115;-61
2022/03/29 03:22:25;;;;;;;3.12;2.45;;;;;;;;;;4135378;34;20559;-60
2022/03/29 03:24:51;;;;;;;2.65;2.25;;;;;;;;;;4135582;34;20472;-61
2022/03/29 03:27:18;;;;;;;3.12;2.40;;;;;;;;;;4123153;34;20131;-61
2022/03/29 03:29:44;;;;;;;3.95;2.58;;;;;;;;;;4135777;34;20188;-61
2022/03/29 03:32:11;;;;;;;3.90;2.50;;;;;;;;;;4135332;34;20110;-61
2022/03/29 03:34:37;;;;;;;3.75;2.90;;;;;;;;;;4135767;34;20204;-61
2022/03/29 03:37:04;;;;;;;4.57;2.62;;;;;;;;;;4123373;34;20122;-61
2022/03/29 03:39:32;;;;;;;3.87;2.53;;;;;;;;;;4135466;34;20135;-62
2022/03/29 03:41:58;;;;;;;6.15;3.22;;;;;;;;;;4135636;34;20107;-62
2022/03/29 03:44:25;;;;;;;3.83;2.80;;;;;;;;;;4135510;34;20576;-63
2022/03/29 03:46:50;;;;;;;3.10;2.50;;;;;;;;;;4135462;34;20539;-60
2022/03/29 03:49:17;;;;;;;4.75;2.72;;;;;;;;;;4135419;34;20107;-61
2022/03/29 03:51:43;;;;;;;3.42;2.65;;;;;;;;;;4136612;34;20145;-61
2022/03/29 03:54:09;;;;;;;3.62;2.95;;;;;;;;;;4137509;34;20496;-61
2022/03/29 03:56:35;;;;;;;5.15;2.80;;;;;;;;;;4137572;34;20203;-60
2022/03/29 03:59:01;;;;;;;4.20;2.85;;;;;;;;;;4137483;34;20127;-60
2022/03/29 04:01:27;;;;;;;10.13;3.42;;;;;;;;;;4137552;34;20115;-59
2022/03/29 04:03:53;;;;;;;4.22;2.97;;;;;;;;;;4137402;34;20249;-60
2022/03/29 04:06:20;;;;;;;4.93;2.83;;;;;;;;;;4137275;34;20600;-60
2022/03/29 04:08:46;;;;;;;3.97;2.60;;;;;;;;;;4137399;34;20112;-60
2022/03/29 04:11:12;;;;;;;4.50;3.00;;;;;;;;;;4137453;34;20103;-60
2022/03/29 04:13:38;;;;;;;3.83;3.20;;;;;;;;;;4137571;34;20109;-60
2022/03/29 04:16:04;;;;;;;5.22;3.00;;;;;;;;;;4137554;34;20125;-60
2022/03/29 04:18:30;;;;;;;3.15;2.58;;;;;;;;;;4137328;34;20191;-60
2022/03/29 04:20:57;;;;;;;2.95;2.55;;;;;;;;;;4137389;34;20112;-59
2022/03/29 04:23:23;;;;;;;3.58;2.80;;;;;;;;;;4137298;34;20111;-61
2022/03/29 04:25:49;;;;;;;27.17;3.45;;;;;;;;;;4137131;34;20121;-59
2022/03/29 04:28:15;;;;;;;3.70;2.78;;;;;;;;;;4137151;34;20536;-62
2022/03/29 04:30:41;;;;;;;4.45;2.60;;;;;;;;;;4137081;34;20204;-62
2022/03/29 04:33:07;;;;;;;33.42;3.40;;;;;;;;;;4137140;34;20131;-62
2022/03/29 04:35:33;;;;;;;3.30;2.60;;;;;;;;;;4137184;34;20103;-63
2022/03/29 04:37:59;;;;;;;4.87;3.03;;;;;;;;;;4136925;34;20209;-61
2022/03/29 04:40:25;;;;;;;3.08;2.72;;;;;;;;;;4137137;34;20571;-62
2022/03/29 04:42:52;;;;;;;4.30;2.70;;;;;;;;;;4124870;34;20135;-61
2022/03/29 04:45:19;;;;;;;2.90;2.33;;;;;;;;;;4136979;34;20123;-61
2022/03/29 04:47:46;;;;;;;3.15;2.58;;;;;;;;;;4137229;34;20096;-62
2022/03/29 04:50:14;;;;;;;3.10;2.70;;;;;;;;;;4137029;34;20565;-60
2022/03/29 04:52:44;;;;;;;4.07;3.10;;;;;;;;;;4136941;34;20092;-61
2022/03/29 04:55:14;;;;;;;2.95;2.60;;;;;;;;;;4137107;34;20550;-62
2022/03/29 04:57:45;;;;;;;3.12;2.70;;;;;;;;;;4136828;34;20212;-62
2022/03/29 05:00:13;;;;;;;3.60;2.95;;;;;;;;;;4137051;34;20127;-60
2022/03/29 05:02:40;;;;;;;3.03;2.45;;;;;;;;;;4136791;34;20214;-60
2022/03/29 05:05:07;;;;;;;3.80;2.80;;;;;;;;;;4124702;34;20452;-59
2022/03/29 05:07:33;;;;;;;3.20;2.67;;;;;;;;;;4136972;34;20183;-58
2022/03/29 05:09:59;;;;;;;4.20;2.80;;;;;;;;;;4136906;34;20099;-60
2022/03/29 05:12:25;;;;;;;3.65;2.65;;;;;;;;;;4136934;34;20119;-60
2022/03/29 05:14:51;;;;;;;2.87;2.50;;;;;;;;;;4136883;34;20115;-60
2022/03/29 05:17:17;;;;;;;3.53;2.90;;;;;;;;;;4137261;34;20247;-60
2022/03/29 05:19:43;;;;;;;3.75;2.85;;;;;;;;;;4136757;34;20242;-60
2022/03/29 05:22:09;;;;;;;3.37;2.92;;;;;;;;;;4136653;34;20144;-59
2022/03/29 05:24:35;;;;;;;3.80;3.00;;;;;;;;;;4136693;34;20107;-59
2022/03/29 05:27:01;;;;;;;4.15;2.58;;;;;;;;;;4137068;34;20099;-59
2022/03/29 05:29:29;;;;;;;4.85;3.22;;;;;;;;;;4136738;34;20245;-59
2022/03/29 05:31:57;;;;;;;4.87;3.00;;;;;;;;;;4136712;34;20212;-59
2022/03/29 05:34:23;;;;;;;3.62;3.08;;;;;;;;;;4136636;34;20126;-59
2022/03/29 05:36:50;;;;;;;4.93;3.25;;;;;;;;;;4136715;34;20123;-61
2022/03/29 05:39:16;;;;;;;4.53;3.30;;;;;;;;;;4136598;34;20122;-60
2022/03/29 05:41:43;;;;;;;5.25;3.60;;;;;;;;;;4136450;34;20196;-60
2022/03/29 05:44:09;;;;;;;3.78;3.08;;;;;;;;;;4136600;34;20104;-61
2022/03/29 05:49:20;;;;;;;4.03;3.40;;;;;;;;;;4136402;34;20556;-60
2022/03/29 05:51:47;;;;;;;5.95;3.20;;;;;;;;;;4135113;34;20107;-59
2022/03/29 05:54:13;;;;;;;4.97;3.60;;;;;;;;;;4136537;34;20107;-60
2022/03/29 05:56:39;;;;;;;6.37;3.58;;;;;;;;;;4136232;34;20131;-60
2022/03/29 05:59:08;;;;;;;4.50;3.50;;;;;;;;;;4136717;34;20456;-60
2022/03/29 06:01:34;;;;;;;5.25;3.70;;;;;;;;;;4136511;34;20758;-60
2022/03/29 06:04:06;;;;;;;3.72;3.20;;;;;;;;;;4136765;34;20120;-60
2022/03/29 06:06:38;;;;;;;4.43;3.30;;;;;;;;;;4136483;34;20606;-59
2022/03/29 06:09:04;;;;;;;4.93;3.20;;;;;;;;;;4136450;34;20107;-60
2022/03/29 06:11:30;;;;;;;5.60;3.70;;;;;;;;;;4136276;34;20535;-59
2022/03/29 06:13:56;;;;;;;3.80;3.37;;;;;;;;;;4134459;34;20111;-60
2022/03/29 06:16:23;;;;;;;4.62;3.55;;;;;;;;;;4136405;34;20174;-61
2022/03/29 06:18:49;;;;;;;5.30;3.58;;;;;;;;;;4136397;34;20103;-60
2022/03/29 06:21:16;;;;;;;5.20;3.33;;;;;;;;;;4136168;34;20536;-61
2022/03/29 06:23:42;;;;;;;4.62;3.22;;;;;;;;;;4136247;34;20115;-60
2022/03/29 06:26:09;;;;;;;5.03;3.30;;;;;;;;;;4136158;34;20484;-62
2022/03/29 06:28:35;;;;;;;4.47;3.22;;;;;;;;;;4136549;34;20520;-61
2022/03/29 06:31:01;;;;;;;5.53;3.87;;;;;;;;;;4135100;34;20142;-61
2022/03/29 06:33:27;;;;;;;5.45;3.10;;;;;;;;;;4136297;34;20127;-61
2022/03/29 06:35:53;;;;;;;4.25;3.20;;;;;;;;;;4136224;34;20204;-60
2022/03/29 06:38:21;;;;;;;9.45;3.10;;;;;;;;;;4136136;34;20117;-60
2022/03/29 06:40:48;;;;;;;4.55;3.37;;;;;;;;;;4136080;34;20096;-61
2022/03/29 06:43:14;;;;;;;4.25;3.60;;;;;;;;;;4136077;34;20099;-61
2022/03/29 06:45:41;;;;;;;5.75;3.60;;;;;;;;;;4135973;34;20114;-61
2022/03/29 06:48:07;;;;;;;4.78;3.12;;;;;;;;;;4135870;34;20091;-61
2022/03/29 06:50:35;;;;;;;4.25;3.33;;;;;;;;;;4136010;34;20158;-60
2022/03/29 06:53:01;;;;;;;4.65;3.70;;;;;;;;;;4135800;34;20123;-60
2022/03/29 06:55:28;;;;;;;4.90;3.15;;;;;;;;;;4123737;34;20188;-61
2022/03/29 06:57:54;;;;;;;5.87;3.40;;;;;;;;;;4136065;34;20114;-61
2022/03/29 07:00:21;;;;;;;6.30;3.30;;;;;;;;;;4123554;34;20135;-60
2022/03/29 07:02:48;;;;;;;5.28;3.67;;;;;;;;;;4135694;34;20540;-60
2022/03/29 07:05:19;;;;;;;5.03;3.70;;;;;;;;;;4134672;34;20092;-61
2022/03/29 07:07:45;;;;;;;5.18;3.42;;;;;;;;;;4135696;34;20122;-60
2022/03/29 07:12:59;;;;;;;5.05;3.55;;;;;;;;;;4125033;34;20188;-61
2022/03/29 07:15:26;;;;;;;4.47;3.35;;;;;;;;;;4135796;34;20119;-63
2022/03/29 07:17:53;;;;;;;5.57;3.60;;;;;;;;;;4123201;34;20638;-60
2022/03/29 07:20:19;;;;;;;5.32;3.17;;;;;;;;;;4135666;34;20187;-60
2022/03/29 07:22:47;;;;;;;5.00;3.58;;;;;;;;;;4135438;34;20437;-62
2022/03/29 07:25:13;;;;;;;3.55;3.22;;;;;;;;;;4135537;34;20115;-63
2022/03/29 07:27:40;;;;;;;4.80;2.97;;;;;;;;;;4125203;34;20094;-60
2022/03/29 07:30:07;;;;;;;3.03;2.58;;;;;;;;;;4137699;34;20135;-60
2022/03/29 07:32:33;;;;;;;3.78;3.03;;;;;;;;;;4137565;34;20143;-60
2022/03/29 07:34:59;;;;;;;5.32;2.80;;;;;;;;;;4125241;34;20308;-62
2022/03/29 07:37:25;;;;;;;2.92;2.60;;;;;;;;;;4137489;34;20138;-62
2022/03/29 07:39:54;;;;;;;2.90;2.55;;;;;;;;;;4137597;34;20216;-62
2022/03/29 07:42:22;;;;;;;4.10;2.70;;;;;;;;;;4137672;34;20172;-61
2022/03/29 07:44:50;;;;;;;4.35;2.58;;;;;;;;;;4125189;34;20126;-60
2022/03/29 07:47:18;;;;;;;3.90;2.70;;;;;;;;;;4125078;34;20118;-64
2022/03/29 07:49:44;;;;;;;3.40;2.37;;;;;;;;;;4137479;34;20208;-62
2022/03/29 07:52:10;;;;;;;2.92;1.80;;;;;;;;;;4137363;34;20158;-63
2022/03/29 07:54:36;;;;;;;3.12;1.80;;;;;;;;;;4137822;34;20159;-61
2022/03/29 07:57:04;;;;;;;2.53;1.92;;;;;;;;;;4137460;34;20280;-61
2022/03/29 07:59:30;;;;;;;1.85;1.50;;;;;;;;;;4137514;34;20480;-62
2022/03/29 08:01:57;;;;;;;2.00;1.90;;;;;;;;;;4134523;34;20127;-61
2022/03/29 08:04:23;;;;;;;1.52;1.40;;;;;;;;;;4133353;34;20188;-62
2022/03/29 08:06:49;;;;;;;2.37;1.77;;;;;;;;;;4134258;34;20119;-63
2022/03/29 08:09:15;;;;;;;2.17;1.70;;;;;;;;;;4134362;34;20556;-59
2022/03/29 08:11:41;;;;;;;4.72;1.80;;;;;;;;;;4134295;34;20134;-61
2022/03/29 08:14:07;;;;;;;1.85;1.52;;;;;;;;;;4134552;34;20123;-61
2022/03/29 08:16:33;;;;;;;1.52;1.42;;;;;;;;;;4134220;34;20231;-61
2022/03/29 08:19:00;;;;;;;2.47;1.60;;;;;;;;;;4134282;34;20119;-60
2022/03/29 08:21:49;;;;;;;1.80;1.50;;;;;;;;;;4134427;34;20589;-60
2022/03/29 08:24:25;;;;;;;1.40;1.30;;;;;;;;;;4134179;34;20118;-60
2022/03/29 08:26:53;;;;;;;2.22;1.50;;;;;;;;;;4134215;34;20128;-63
2022/03/29 08:29:21;;;;;;;3.00;1.50;;;;;;;;;;4134247;34;20134;-62
2022/03/29 08:31:49;;;;;;;1.45;1.33;;;;;;;;;;4135142;34;20479;-62
2022/03/29 08:34:16;;;;;;;1.48;1.30;;;;;;;;;;4137263;34;20110;-63
2022/03/29 08:36:43;;;;;;;1.95;1.65;;;;;;;;;;4136738;34;20111;-63
2022/03/29 08:39:09;;;;;;;1.50;1.40;;;;;;;;;;4137200;34;20889;-64
2022/03/29 08:41:44;;;;;;;1.62;1.52;;;;;;;;;;4137237;34;20634;-64
2022/03/29 08:44:10;;;;;;;2.60;1.60;;;;;;;;;;4137153;34;20536;-65
2022/03/29 08:46:38;;;;;;;1.55;1.45;;;;;;;;;;4137274;34;20207;-64
2022/03/29 08:49:06;;;;;;;2.08;1.70;;;;;;;;;;4136943;34;20633;-63
2022/03/29 08:51:32;;;;;;;1.42;1.33;;;;;;;;;;4136881;34;20472;-64
2022/03/29 08:53:58;;;;;;;1.60;1.50;;;;;;;;;;4136985;34;20633;-63
2022/03/29 08:56:25;;;;;;;2.03;1.60;;;;;;;;;;4137116;34;20201;-62
2022/03/29 08:58:51;;;;;;;2.47;1.40;;;;;;;;;;4137050;34;20552;-62
2022/03/29 09:01:21;;;;;;;1.98;1.50;;;;;;;;;;4136917;34;20122;-62
2022/03/29 09:04:05;;;;;;;1.67;1.40;;;;;;;;;;4137000;34;20127;-63
2022/03/29 09:06:32;;;;;;;1.90;1.27;;;;;;;;;;4136944;34;20122;-62
2022/03/29 09:08:57;;;;;;;1.20;1.10;;;;;;;;;;4136888;34;20103;-62
2022/03/29 09:11:23;;;;;;;1.50;1.40;;;;;;;;;;4124304;34;20139;-62
2022/03/29 09:14:05;;;;;;;1.60;1.50;;;;;;;;;;4135448;34;20139;-61
2022/03/29 09:16:33;;;;;;;1.45;1.35;;;;;;;;;;4136900;34;20118;-64
2022/03/29 09:19:00;;;;;;;1.30;1.20;;;;;;;;;;4136818;34;20533;-62
2022/03/29 09:21:27;;;;;;;1.30;1.20;;;;;;;;;;4136858;34;20133;-60
2022/03/29 09:24:16;;;;;;;1.37;1.27;;;;;;;;;;4136724;34;20139;-60
2022/03/29 09:26:44;;;;;;;1.40;1.30;;;;;;;;;;4136859;34;20620;-59
2022/03/29 09:29:20;;;;;;;1.00;1.00;;;;;;;;;;4137005;34;20120;-60
2022/03/29 09:31:50;;;;;;;1.27;1.17;;;;;;;;;;4136614;34;20215;-61
2022/03/29 09:34:20;;;;;;;1.60;1.50;;;;;;;;;;4136861;34;20139;-61
2022/03/29 09:36:50;;;;;;;1.40;1.30;;;;;;;;;;4136523;34;20217;-61
2022/03/29 09:39:42;;;;;;;1.45;1.30;;;;;;;;;;4136751;34;20111;-61
2022/03/29 09:42:09;;;;;;;1.48;1.33;;;;;;;;;;4113067;34;20103;-61
2022/03/29 09:44:40;;;;;;;1.40;1.30;;;;;;;;;;4124233;34;20182;-62
2022/03/29 09:47:07;;;;;;;1.40;1.30;;;;;;;;;;4136694;34;20159;-63
2022/03/29 09:49:53;;;;;;;1.50;1.40;;;;;;;;;;4135906;34;20127;-60
2022/03/29 09:52:21;;;;;;;1.40;1.30;;;;;;;;;;4136602;34;20551;-59
2022/03/29 09:55:09;;;;;;;1.40;1.30;;;;;;;;;;4136554;34;20100;-59
2022/03/29 09:57:41;;;;;;;1.30;1.20;;;;;;;;;;4136470;34;20106;-58
2022/03/29 10:00:10;;;;;;;1.40;1.30;;;;;;;;;;4124419;34;20080;-62
2022/03/29 10:02:40;;;;;;;1.33;1.23;;;;;;;;;;4134348;34;20115;-61
2022/03/29 10:05:09;;;;;;;1.40;1.30;;;;;;;;;;4136354;34;20130;-60
2022/03/29 10:07:43;;;;;;;1.80;1.40;;;;;;;;;;4136008;34;20504;-58
2022/03/29 10:10:10;;;;;;;1.58;1.30;;;;;;;;;;4136368;34;20204;-58
2022/03/29 10:12:36;;;;;;;1.48;1.37;;;;;;;;;;4136017;34;20199;-60
2022/03/29 10:15:03;;;;;;;1.30;1.20;;;;;;;;;;4136220;34;20548;-59
2022/03/29 10:17:30;;;;;;;1.80;1.40;;;;;;;;;;4135876;34;20134;-58
2022/03/29 10:19:56;;;;;;;1.40;1.20;;;;;;;;;;4123834;34;20108;-59
2022/03/29 10:22:22;;;;;;;1.60;1.50;;;;;;;;;;4135518;34;20198;-60
2022/03/29 10:24:48;;;;;;;1.35;1.20;;;;;;;;;;4135948;34;20119;-60
2022/03/29 10:27:17;;;;;;;1.50;1.40;;;;;;;;;;4135927;34;20117;-65
2022/03/29 10:29:43;;;;;;;1.30;1.17;;;;;;;;;;4136079;34;20103;-59
2022/03/29 10:32:10;;;;;;;1.45;1.20;;;;;;;;;;4136013;34;20108;-60
2022/03/29 10:34:39;;;;;;;1.30;1.20;;;;;;;;;;4135710;34;20449;-60
2022/03/29 10:37:16;;;;;;;1.50;1.17;;;;;;;;;;4135570;34;20131;-62
2022/03/29 10:39:50;;;;;;;1.20;1.15;;;;;;;;;;4135962;34;20096;-60
2022/03/29 10:42:32;;;;;;;1.40;1.30;;;;;;;;;;4134812;34;20551;-62
2022/03/29 10:44:58;;;;;;;1.55;1.42;;;;;;;;;;4135988;34;20112;-61
2022/03/29 10:47:26;;;;;;;1.83;1.30;;;;;;;;;;4134054;34;20134;-59
2022/03/29 10:49:52;;;;;;;1.52;1.42;;;;;;;;;;4132812;34;20103;-63
2022/03/29 10:52:21;;;;;;;1.50;1.40;;;;;;;;;;4139491;34;20115;-62
2022/03/29 10:54:48;;;;;;;1.33;1.23;;;;;;;;;;4137097;34;20183;-60
2022/03/29 10:57:25;;;;;;;3.78;1.70;;;;;;;;;;4138733;34;20127;-61
2022/03/29 11:00:11;;;;;;;1.45;1.30;;;;;;;;;;4135764;34;20103;-60
2022/03/29 11:02:38;;;;;;;1.30;1.20;;;;;;;;;;4132471;34;20119;-60
2022/03/29 11:05:09;;;;;;;1.50;1.25;;;;;;;;;;4132833;34;20113;-61
2022/03/29 11:07:36;;;;;;;1.37;1.20;;;;;;;;;;4137546;34;20141;-60
2022/03/29 11:10:19;;;;;;;2.45;1.20;;;;;;;;;;4137189;34;20195;-61
2022/03/29 11:12:49;;;;;;;1.52;1.30;;;;;;;;;;4136630;34;20543;-61
2022/03/29 11:15:24;;;;;;;1.20;1.10;;;;;;;;;;4135855;34;20209;-62
2022/03/29 11:17:54;;;;;;;1.47;1.37;;;;;;;;;;4135775;34;20150;-61
2022/03/29 11:20:38;;;;;;;1.10;1.10;;;;;;;;;;4123774;34;20183;-61
2022/03/29 11:23:10;;;;;;;1.50;1.37;;;;;;;;;;4136350;34;20459;-60
2022/03/29 11:25:39;;;;;;;1.77;1.58;;;;;;;;;;4135779;34;20111;-60
2022/03/29 11:28:11;;;;;;;2.03;1.55;;;;;;;;;;4135858;34;20115;-60
2022/03/29 11:30:37;;;;;;;1.55;1.30;;;;;;;;;;4137733;34;20480;-60
2022/03/29 11:33:04;;;;;;;2.20;1.40;;;;;;;;;;4124354;34;20205;-59
2022/03/29 11:35:34;;;;;;;2.15;1.50;;;;;;;;;;4137751;34;20748;-59
2022/03/29 11:38:07;;;;;;;2.92;1.30;;;;;;;;;;4137483;34;20544;-58
2022/03/29 11:40:33;;;;;;;2.40;1.50;;;;;;;;;;4137650;34;20130;-59
2022/03/29 11:43:00;;;;;;;1.50;1.40;;;;;;;;;;4137453;34;20606;-59
2022/03/29 11:45:28;;;;;;;2.20;1.52;;;;;;;;;;4137663;34;20104;-62
2022/03/29 11:47:55;;;;;;;1.52;1.25;;;;;;;;;;4137456;34;20452;-60
2022/03/29 11:50:53;;;;;;;1.65;1.40;;;;;;;;;;4135794;34;20543;-60
2022/03/29 11:53:37;;;;;;;1.80;1.40;;;;;;;;;;4133681;34;20084;-60
2022/03/29 11:56:21;;;;;;;2.35;1.50;;;;;;;;;;4124015;34;20112;-59
2022/03/29 11:58:52;;;;;;;1.60;1.45;;;;;;;;;;4124635;34;20127;-60
2022/03/29 12:01:20;;;;;;;2.17;1.40;;;;;;;;;;4137305;34;20119;-60
2022/03/29 12:03:48;;;;;;;1.58;1.20;;;;;;;;;;4137304;34;20100;-60
2022/03/29 12:06:14;;;;;;;1.60;1.50;;;;;;;;;;4124882;34;20112;-62
2022/03/29 12:08:52;;;;;;;1.67;1.42;;;;;;;;;;4137598;34;20764;-61
2022/03/29 12:11:29;;;;;;;1.92;1.70;;;;;;;;;;4136893;34;20115;-59
2022/03/29 12:14:01;;;;;;;2.17;1.60;;;;;;;;;;4137296;34;20580;-59
2022/03/29 12:16:27;;;;;;;1.80;1.70;;;;;;;;;;4137276;34;20123;-62
2022/03/29 12:18:55;;;;;;;1.40;1.30;;;;;;;;;;4136421;34;20183;-61
2022/03/29 12:21:22;;;;;;;1.77;1.48;;;;;;;;;;4136633;34;20182;-59
2022/03/29 12:23:57;;;;;;;2.12;1.65;;;;;;;;;;4137098;34;20092;-60
2022/03/29 12:26:23;;;;;;;2.55;1.42;;;;;;;;;;4124921;34;20127;-62
2022/03/29 12:28:49;;;;;;;3.03;1.52;;;;;;;;;;4124639;34;20103;-61
2022/03/29 12:31:17;;;;;;;3.00;1.33;;;;;;;;;;4121515;34;20126;-60
2022/03/29 12:33:44;;;;;;;1.67;1.30;;;;;;;;;;4136235;34;20201;-60
2022/03/29 12:36:12;;;;;;;1.62;1.40;;;;;;;;;;4136883;34;20210;-60
2022/03/29 12:39:14;;;;;;;1.40;1.30;;;;;;;;;;4136053;34;20512;-60
2022/03/29 12:41:41;;;;;;;1.90;1.30;;;;;;;;;;4135165;34;20122;-61
2022/03/29 12:44:09;;;;;;;1.83;1.45;;;;;;;;;;4136344;34;20111;-60
2022/03/29 12:46:37;;;;;;;1.60;1.40;;;;;;;;;;4136556;34;20132;-58
2022/03/29 12:49:04;;;;;;;1.85;1.40;;;;;;;;;;4135602;34;20131;-58
2022/03/29 12:51:33;;;;;;;2.05;1.30;;;;;;;;;;4134879;34;20115;-58
2022/03/29 12:54:05;;;;;;;1.30;1.20;;;;;;;;;;4134910;34;20218;-58
2022/03/29 12:56:39;;;;;;;3.03;1.50;;;;;;;;;;4134966;34;20178;-58
2022/03/29 12:59:24;;;;;;;1.55;1.30;;;;;;;;;;4134996;34;20120;-59
2022/03/29 13:01:50;;;;;;;1.90;1.65;;;;;;;;;;4134908;34;20849;-60
2022/03/29 13:04:16;;;;;;;1.37;1.27;;;;;;;;;;4135389;34;20518;-59
2022/03/29 13:06:44;;;;;;;1.30;1.20;;;;;;;;;;4136986;34;20130;-59
2022/03/29 13:09:12;;;;;;;1.30;1.17;;;;;;;;;;4136857;34;20099;-59
2022/03/29 13:11:39;;;;;;;1.42;1.30;;;;;;;;;;4136935;34;20119;-60
2022/03/29 13:14:08;;;;;;;1.50;1.40;;;;;;;;;;4136005;34;20119;-59
2022/03/29 13:16:34;;;;;;;1.40;1.30;;;;;;;;;;4136986;34;20209;-59
2022/03/29 13:19:01;;;;;;;2.62;1.83;;;;;;;;;;4137303;34;20135;-60
2022/03/29 13:21:30;;;;;;;1.73;1.30;;;;;;;;;;4136896;34;20112;-60
2022/03/29 13:24:15;;;;;;;1.83;1.50;;;;;;;;;;4136654;34;20477;-59
2022/03/29 13:26:46;;;;;;;1.58;1.40;;;;;;;;;;4136830;34;20178;-60
2022/03/29 13:29:13;;;;;;;4.40;1.80;;;;;;;;;;4136759;34;20127;-63
2022/03/29 13:31:40;;;;;;;2.75;1.52;;;;;;;;;;4135376;34;20104;-61
2022/03/29 13:34:09;;;;;;;1.98;1.77;;;;;;;;;;4123294;34;20310;-61
2022/03/29 13:36:36;;;;;;;5.43;3.00;;;;;;;;;;4134744;34;20110;-64
2022/03/29 13:39:04;;;;;;;4.45;3.97;;;;;;;;;;4133361;34;20191;-63
2022/03/29 13:41:30;;;;;;;5.68;1.90;;;;;;;;;;4134562;34;20199;-61
2022/03/29 13:43:56;;;;;;;1.80;1.67;;;;;;;;;;4134556;34;20122;-60
2022/03/29 13:46:23;;;;;;;2.03;1.55;;;;;;;;;;4122041;34;20563;-63
2022/03/29 13:48:50;;;;;;;1.58;1.48;;;;;;;;;;4134713;34;20130;-61
2022/03/29 13:51:17;;;;;;;1.52;1.42;;;;;;;;;;4123912;34;20127;-61
2022/03/29 13:53:44;;;;;;;2.95;1.42;;;;;;;;;;4123960;34;20119;-62
2022/03/29 13:56:11;;;;;;;2.42;1.50;;;;;;;;;;4136586;34;20484;-61
2022/03/29 13:58:37;;;;;;;1.40;1.30;;;;;;;;;;4136492;34;20107;-62
2022/03/29 14:01:04;;;;;;;1.70;1.42;;;;;;;;;;4136657;34;20100;-61
2022/03/29 14:03:30;;;;;;;1.40;1.30;;;;;;;;;;4136473;34;20131;-61
2022/03/29 14:05:57;;;;;;;1.35;1.25;;;;;;;;;;4136330;34;20540;-61
2022/03/29 14:08:33;;;;;;;2.28;1.50;;;;;;;;;;4124282;34;20441;-61
2022/03/29 14:10:59;;;;;;;;;;;;;;;;;;4136826;34;20220;-61
2022/03/29 14:13:30;;;;;;;2.22;1.50;;;;;;;;;;4136377;34;19996;-61
2022/03/29 14:15:57;;;;;;;4.50;1.50;;;;;;;;;;4136449;34;20100;-61
2022/03/29 14:18:24;;;;;;;1.55;1.40;;;;;;;;;;4124092;34;20224;-62
2022/03/29 14:20:52;;;;;;;2.20;1.40;;;;;;;;;;4136552;34;20191;-62
2022/03/29 14:23:20;;;;;;;1.75;1.65;;;;;;;;;;4136240;34;20216;-62
2022/03/29 14:25:50;;;;;;;2.00;1.52;;;;;;;;;;4124075;34;20133;-62
2022/03/29 14:28:17;;;;;;;1.67;1.52;;;;;;;;;;4136300;34;20202;-62
2022/03/29 14:30:44;;;;;;;1.48;1.35;;;;;;;;;;4123964;34;20147;-61
2022/03/29 14:33:11;;;;;;;3.30;1.80;;;;;;;;;;4136131;34;20155;-60
2022/03/29 14:35:37;;;;;;;1.80;1.50;;;;;;;;;;4135999;34;20119;-61
2022/03/29 14:38:04;;;;;;;1.73;1.45;;;;;;;;;;4136102;34;20603;-61
2022/03/29 14:40:30;;;;;;;1.52;1.42;;;;;;;;;;4136314;34;20096;-61
2022/03/29 14:42:58;;;;;;;3.03;1.65;;;;;;;;;;4123638;34;20203;-61
2022/03/29 14:45:24;;;;;;;1.58;1.48;;;;;;;;;;4136014;34;20199;-60
2022/03/29 14:47:50;;;;;;;2.08;1.70;;;;;;;;;;4135943;34;20194;-60
2022/03/29 14:50:20;;;;;;;2.08;1.70;;;;;;;;;;4135913;34;20183;-61
2022/03/29 14:52:47;;;;;;;4.35;1.83;;;;;;;;;;4135783;34;20473;-64
2022/03/29 14:55:15;;;;;;;2.25;1.60;;;;;;;;;;4122958;34;20096;-61
2022/03/29 14:57:41;;;;;;;2.28;1.77;;;;;;;;;;4135797;34;20190;-62
2022/03/29 15:00:09;;;;;;;2.92;1.87;;;;;;;;;;4123433;34;20508;-61
2022/03/29 15:02:35;;;;;;;3.67;2.00;;;;;;;;;;4136167;34;20538;-64
2022/03/29 15:05:02;;;;;;;2.47;2.05;;;;;;;;;;4136001;34;20101;-61
2022/03/29 15:07:29;;;;;;;1.60;1.50;;;;;;;;;;4135802;34;20111;-60
2022/03/29 15:09:55;;;;;;;1.87;1.65;;;;;;;;;;4135882;34;20108;-59
2022/03/29 15:12:21;;;;;;;1.87;1.58;;;;;;;;;;4135837;34;20130;-60
2022/03/29 15:14:47;;;;;;;2.33;1.35;;;;;;;;;;4136036;34;20105;-60
2022/03/29 15:17:14;;;;;;;2.10;1.30;;;;;;;;;;4135710;34;20123;-60